sensor_id;sensor_type;location;lat;lon;timestamp;pressure;altitude;pressure_sealevel;temperature;humidity
72942;BME280;69665;55.822;37.330;2023-05-02T02:42:14;100179.25;;;5.96;53.64
72942;BME280;69665;55.822;37.330;2023-05-02T02:44:57;100167.53;;;7.47;52.12
72942;BME280;69665;55.822;37.330;2023-05-02T02:47:40;100165.88;;;9.14;48.66
72942;BME280;69665;55.822;37.330;2023-05-02T02:50:22;100160.72;;;10.72;46.33
72942;BME280;69665;55.822;37.330;2023-05-02T02:53:01;100153.41;;;12.14;43.81
72942;BME280;69665;55.822;37.330;2023-05-02T03:00:31;100153.88;;;14.97;38.81
72942;BME280;69665;55.822;37.330;2023-05-02T03:02:57;100145.50;;;15.76;37.00
72942;BME280;69665;55.822;37.330;2023-05-02T03:05:23;100157.28;;;16.71;36.34
72942;BME280;69665;55.822;37.330;2023-05-02T03:07:49;100145.28;;;17.57;34.79
72942;BME280;69665;55.822;37.330;2023-05-02T03:10:15;100159.25;;;18.49;33.60
72942;BME280;69665;55.822;37.330;2023-05-02T03:12:42;100163.47;;;19.22;32.95
72942;BME280;69665;55.822;37.330;2023-05-02T03:18:09;100164.84;;;20.96;31.07
72942;BME280;69665;55.822;37.330;2023-05-02T03:20:35;100163.00;;;21.57;30.55
72942;BME280;69665;55.822;37.330;2023-05-02T03:23:06;100171.69;;;22.30;29.28
72942;BME280;69665;55.822;37.330;2023-05-02T03:25:32;100182.94;;;23.02;29.09
72942;BME280;69665;55.822;37.330;2023-05-02T03:27:58;100178.38;;;23.37;28.75
72942;BME280;69665;55.822;37.330;2023-05-02T03:30:23;100182.50;;;24.05;28.02
72942;BME280;69665;55.822;37.330;2023-05-02T03:32:49;100191.44;;;24.77;27.60
72942;BME280;69665;55.822;37.330;2023-05-02T03:35:16;100188.69;;;25.38;27.00
72942;BME280;69665;55.822;37.330;2023-05-02T03:37:44;100206.47;;;26.08;26.45
72942;BME280;69665;55.822;37.330;2023-05-02T03:40:10;100194.72;;;26.65;25.55
72942;BME280;69665;55.822;37.330;2023-05-02T06:23:29;100266.16;;;47.51;13.10
72942;BME280;69665;55.822;37.330;2023-05-02T06:26:45;100269.53;;;47.38;17.79
72942;BME280;69665;55.822;37.330;2023-05-02T06:29:11;100254.44;;;47.44;18.31
72942;BME280;69665;55.822;37.330;2023-05-02T06:31:36;100270.63;;;47.52;19.29
72942;BME280;69665;55.822;37.330;2023-05-02T06:34:02;100257.66;;;47.71;18.49
72942;BME280;69665;55.822;37.330;2023-05-02T06:36:28;100268.63;;;48.07;18.02
72942;BME280;69665;55.822;37.330;2023-05-02T06:38:54;100274.69;;;47.80;18.74
72942;BME280;69665;55.822;37.330;2023-05-02T06:41:20;100275.56;;;47.65;19.17
72942;BME280;69665;55.822;37.330;2023-05-02T06:43:46;100273.22;;;48.26;18.54
72942;BME280;69665;55.822;37.330;2023-05-02T06:46:11;100268.56;;;48.80;18.55
72942;BME280;69665;55.822;37.330;2023-05-02T06:48:37;100277.84;;;49.28;17.58
72942;BME280;69665;55.822;37.330;2023-05-02T06:51:02;100283.09;;;50.15;17.41
72942;BME280;69665;55.822;37.330;2023-05-02T06:53:29;100273.91;;;49.90;16.70
72942;BME280;69665;55.822;37.330;2023-05-02T06:55:55;100274.59;;;49.64;17.68
72942;BME280;69665;55.822;37.330;2023-05-02T06:58:21;100272.09;;;49.62;16.91
72942;BME280;69665;55.822;37.330;2023-05-02T07:00:47;100272.03;;;50.05;17.08
72942;BME280;69665;55.822;37.330;2023-05-02T07:03:13;100252.22;;;50.34;16.75
72942;BME280;69665;55.822;37.330;2023-05-02T07:37:42;100253.53;;;49.66;11.92
72942;BME280;69665;55.822;37.330;2023-05-02T07:40:08;100252.56;;;49.95;16.93
72942;BME280;69665;55.822;37.330;2023-05-02T07:42:34;100254.00;;;50.11;17.71
72942;BME280;69665;55.822;37.330;2023-05-02T07:45:00;100255.44;;;50.08;17.40
72942;BME280;69665;55.822;37.330;2023-05-02T07:47:26;100249.34;;;50.39;17.46
72942;BME280;69665;55.822;37.330;2023-05-02T07:49:52;100252.84;;;50.12;17.48
72942;BME280;69665;55.822;37.330;2023-05-02T07:52:19;100240.88;;;50.25;17.02
72942;BME280;69665;55.822;37.330;2023-05-02T07:54:44;100240.81;;;50.44;17.70
72942;BME280;69665;55.822;37.330;2023-05-02T07:57:11;100239.91;;;49.97;16.30
72942;BME280;69665;55.822;37.330;2023-05-02T08:00:26;100227.88;;;49.59;17.17
72942;BME280;69665;55.822;37.330;2023-05-02T08:02:52;100244.34;;;48.94;17.70
72942;BME280;69665;55.822;37.330;2023-05-02T08:05:17;100237.16;;;48.30;18.54
72942;BME280;69665;55.822;37.330;2023-05-02T08:07:43;100214.25;;;46.14;18.91
72942;BME280;69665;55.822;37.330;2023-05-02T08:10:09;100232.03;;;42.51;19.52
72942;BME280;69665;55.822;37.330;2023-05-02T08:12:38;100226.56;;;39.31;17.62
72942;BME280;69665;55.822;37.330;2023-05-02T08:15:06;100213.53;;;39.38;19.62
72942;BME280;69665;55.822;37.330;2023-05-02T08:17:32;100208.00;;;41.21;18.71
72942;BME280;69665;55.822;37.330;2023-05-02T08:19:58;100216.06;;;42.25;18.35
72942;BME280;69665;55.822;37.330;2023-05-02T08:22:23;100232.19;;;43.00;17.28
72942;BME280;69665;55.822;37.330;2023-05-02T08:24:49;100216.34;;;43.61;16.93
72942;BME280;69665;55.822;37.330;2023-05-02T08:27:14;100229.03;;;43.79;17.56
72942;BME280;69665;55.822;37.330;2023-05-02T08:29:40;100217.75;;;43.42;17.59
72942;BME280;69665;55.822;37.330;2023-05-02T08:32:05;100227.41;;;43.34;17.55
72942;BME280;69665;55.822;37.330;2023-05-02T08:34:31;100211.41;;;43.68;16.62
72942;BME280;69665;55.822;37.330;2023-05-02T08:36:58;100211.25;;;43.53;17.02
72942;BME280;69665;55.822;37.330;2023-05-02T08:39:27;100223.78;;;43.33;16.50
72942;BME280;69665;55.822;37.330;2023-05-02T08:41:52;100208.69;;;43.24;17.95
72942;BME280;69665;55.822;37.330;2023-05-02T08:44:18;100209.47;;;42.64;16.79
72942;BME280;69665;55.822;37.330;2023-05-02T08:46:43;100205.50;;;40.61;18.78
72942;BME280;69665;55.822;37.330;2023-05-02T08:49:10;100202.47;;;40.28;18.18
72942;BME280;69665;55.822;37.330;2023-05-02T08:51:36;100205.56;;;38.00;19.48
72942;BME280;69665;55.822;37.330;2023-05-02T08:54:02;100209.59;;;37.98;18.48
72942;BME280;69665;55.822;37.330;2023-05-02T08:56:28;100196.13;;;39.56;18.00
72942;BME280;69665;55.822;37.330;2023-05-02T08:58:54;100214.25;;;41.17;17.71
72942;BME280;69665;55.822;37.330;2023-05-02T09:01:22;100191.38;;;41.61;16.37
72942;BME280;69665;55.822;37.330;2023-05-02T09:03:48;100207.91;;;42.35;16.38
72942;BME280;69665;55.822;37.330;2023-05-02T09:06:39;100206.41;;;42.44;16.97
72942;BME280;69665;55.822;37.330;2023-05-02T09:09:33;100192.94;;;41.29;16.28
72942;BME280;69665;55.822;37.330;2023-05-02T09:11:58;100196.56;;;39.71;17.06
72942;BME280;69665;55.822;37.330;2023-05-02T09:14:24;100188.94;;;39.55;17.36
72942;BME280;69665;55.822;37.330;2023-05-02T09:16:49;100184.25;;;38.89;17.99
